Time;durP1;ratioP1;P1;durP2;ratioP2;P2;SDS_P1;SDS_P2;PMS_P1;PMS_P2;Temp;Humidity;BMP_temperature;BMP_pressure;BME280_temperature;BME280_humidity;BME280_pressure;Samples;Min_cycle;Max_cycle;Signal;HPM_P1;HPM_P2
2022/02/25 00:00:54;;;;;;;2.50;1.03;;;3.10;99.90;;;;;;5013231;28;20410;-89
2022/02/25 00:03:20;;;;;;;9.03;1.80;;;3.00;99.90;;;;;;4995144;28;20231;-89
2022/02/25 00:05:48;;;;;;;5.23;2.30;;;2.90;99.90;;;;;;4994843;28;20191;-89
2022/02/25 00:08:17;;;;;;;6.10;2.00;;;2.90;99.90;;;;;;5013633;28;20182;-90
2022/02/25 00:10:42;;;;;;;3.07;0.90;;;2.90;99.90;;;;;;4996291;28;20945;-89
2022/02/25 00:13:08;;;;;;;12.90;1.90;;;2.90;99.90;;;;;;4996261;28;20462;-89
2022/02/25 00:15:33;;;;;;;2.70;1.70;;;2.90;99.90;;;;;;4995452;28;20175;-86
2022/02/25 00:17:59;;;;;;;10.83;1.70;;;3.00;99.90;;;;;;4998415;28;20240;-85
2022/02/25 00:20:24;;;;;;;4.83;1.40;;;3.10;99.90;;;;;;4998192;28;20167;-88
2022/02/25 00:22:50;;;;;;;6.30;1.57;;;3.10;99.90;;;;;;4998228;28;20311;-84
2022/02/25 00:25:15;;;;;;;10.17;2.73;;;3.10;99.90;;;;;;4998449;28;20171;-87
2022/02/25 00:27:50;;;;;;;9.57;2.90;;;3.10;99.90;;;;;;4998114;28;20178;-87
2022/02/25 00:30:16;;;;;;;4.97;1.47;;;3.10;99.90;;;;;;5016223;28;20175;-85
2022/02/25 00:32:41;;;;;;;3.57;1.70;;;3.10;99.90;;;;;;4997708;28;20848;-85
2022/02/25 00:35:07;;;;;;;3.20;2.23;;;3.10;99.90;;;;;;5014182;28;20785;-85
2022/02/25 00:37:33;;;;;;;11.00;2.17;;;3.10;99.90;;;;;;4997252;28;20658;-87
2022/02/25 00:39:59;;;;;;;4.20;1.40;;;3.10;99.90;;;;;;5015412;28;20470;-86
2022/02/25 00:42:24;;;;;;;11.73;2.33;;;3.20;99.90;;;;;;5015563;28;20171;-86
2022/02/25 00:44:50;;;;;;;15.67;2.83;;;3.20;99.90;;;;;;5015722;28;20949;-85
2022/02/25 00:47:16;;;;;;;8.30;2.77;;;3.10;99.90;;;;;;4996720;28;20171;-85
2022/02/25 00:49:41;;;;;;;11.13;4.93;;;3.10;99.90;;;;;;5015323;28;20203;-86
2022/02/25 00:52:07;;;;;;;9.60;2.20;;;3.20;99.90;;;;;;5015307;28;20207;-85
2022/02/25 00:54:33;;;;;;;12.20;2.10;;;3.20;99.90;;;;;;4996964;28;20187;-87
2022/02/25 00:56:59;;;;;;;6.17;1.87;;;3.20;99.90;;;;;;4998118;28;20257;-85
2022/02/25 00:59:24;;;;;;;3.27;0.97;;;3.20;99.90;;;;;;5016252;28;20179;-87
2022/02/25 01:01:50;;;;;;;7.57;1.40;;;3.20;99.90;;;;;;4998107;28;20175;-89
2022/02/25 01:04:15;;;;;;;9.50;1.67;;;3.20;99.90;;;;;;4998069;28;20253;-87
2022/02/25 01:06:42;;;;;;;10.00;1.80;;;3.10;99.90;;;;;;4998155;28;20225;-87
2022/02/25 01:09:08;;;;;;;6.50;1.80;;;3.10;99.90;;;;;;5015578;28;20179;-87
2022/02/25 01:11:34;;;;;;;7.33;1.70;;;3.20;99.90;;;;;;5015540;28;20447;-88
2022/02/25 01:13:59;;;;;;;3.80;1.60;;;3.20;99.90;;;;;;4997217;28;20857;-87
2022/02/25 01:16:25;;;;;;;5.10;1.13;;;3.20;99.90;;;;;;4997605;28;20595;-88
2022/02/25 01:18:51;;;;;;;8.60;1.10;;;3.10;99.90;;;;;;4997355;28;20659;-86
2022/02/25 01:21:19;;;;;;;3.23;1.67;;;3.20;99.90;;;;;;4997535;28;20175;-86
2022/02/25 01:23:44;;;;;;;7.60;1.00;;;3.10;99.90;;;;;;5014906;28;20698;-86
2022/02/25 01:26:10;;;;;;;9.03;1.90;;;3.10;99.90;;;;;;5014606;28;20453;-87
2022/02/25 01:28:35;;;;;;;4.37;1.90;;;3.20;99.90;;;;;;4996629;28;20175;-86
2022/02/25 01:31:03;;;;;;;2.13;0.67;;;3.20;99.90;;;;;;4996987;28;20174;-86
2022/02/25 01:33:28;;;;;;;6.67;1.90;;;3.20;99.90;;;;;;5014051;28;20227;-86
2022/02/25 01:35:54;;;;;;;7.77;1.73;;;3.10;99.90;;;;;;5014388;28;21078;-85
2022/02/25 01:38:20;;;;;;;3.33;1.60;;;3.00;99.90;;;;;;5014089;28;20166;-85
2022/02/25 01:40:45;;;;;;;2.90;1.07;;;3.00;99.90;;;;;;5014359;28;20920;-85
2022/02/25 01:43:11;;;;;;;2.20;1.00;;;2.90;99.90;;;;;;5014093;28;20631;-86
2022/02/25 01:45:37;;;;;;;5.70;1.23;;;2.90;99.90;;;;;;4996602;28;20545;-86
2022/02/25 01:48:04;;;;;;;9.10;2.30;;;2.80;99.90;;;;;;4996387;28;20267;-85
2022/02/25 01:50:30;;;;;;;4.53;1.70;;;2.80;99.90;;;;;;5014060;28;20418;-85
2022/02/25 01:53:07;;;;;;;8.70;1.80;;;2.80;99.90;;;;;;5014378;28;20465;-87
2022/02/25 01:55:34;;;;;;;5.30;1.87;;;2.80;99.90;;;;;;5014441;28;20417;-87
2022/02/25 01:58:00;;;;;;;5.90;1.37;;;2.80;99.90;;;;;;5014295;28;20925;-86
2022/02/25 02:00:26;;;;;;;4.70;1.47;;;2.70;99.90;;;;;;4997650;28;20417;-87
2022/02/25 02:02:52;;;;;;;2.83;1.10;;;2.70;99.90;;;;;;4996456;28;20208;-86
2022/02/25 02:05:18;;;;;;;10.30;2.20;;;2.80;99.90;;;;;;5014596;28;20429;-84
2022/02/25 02:07:44;;;;;;;3.27;1.13;;;2.70;99.90;;;;;;5014147;28;20174;-87
2022/02/25 02:10:10;;;;;;;7.67;1.53;;;2.70;99.90;;;;;;4996696;28;20867;-87
2022/02/25 02:12:36;;;;;;;5.60;1.20;;;2.70;99.90;;;;;;5013969;28;20519;-87
2022/02/25 02:15:05;;;;;;;10.73;2.60;;;2.70;99.90;;;;;;5014316;28;20495;-87
2022/02/25 02:17:34;;;;;;;8.40;1.43;;;2.70;99.90;;;;;;5013586;28;20422;-87
2022/02/25 02:20:01;;;;;;;4.10;1.73;;;2.70;99.90;;;;;;4996820;28;20422;-87
2022/02/25 02:22:27;;;;;;;6.80;1.80;;;2.80;99.90;;;;;;5013858;28;20456;-86
2022/02/25 02:24:52;;;;;;;8.60;1.83;;;3.00;99.90;;;;;;5013941;28;20482;-87
2022/02/25 02:27:18;;;;;;;4.70;1.90;;;3.00;99.90;;;;;;5014134;28;21012;-87
2022/02/25 02:29:43;;;;;;;2.90;1.00;;;3.10;99.90;;;;;;5012312;28;20262;-87
2022/02/25 02:32:10;;;;;;;5.80;1.40;;;3.10;99.90;;;;;;5013650;28;20199;-88
2022/02/25 02:34:37;;;;;;;7.30;1.47;;;3.10;99.90;;;;;;5014099;28;20174;-87
2022/02/25 02:37:02;;;;;;;5.30;0.87;;;3.20;99.90;;;;;;4996671;28;20478;-87
2022/02/25 02:39:28;;;;;;;5.50;0.97;;;3.30;99.90;;;;;;5012717;28;20831;-87
2022/02/25 02:41:56;;;;;;;3.50;1.00;;;3.30;99.90;;;;;;5013388;28;20171;-88
2022/02/25 02:44:22;;;;;;;5.43;2.17;;;3.30;99.90;;;;;;5013482;28;20637;-88
2022/02/25 02:46:48;;;;;;;2.20;1.00;;;3.30;99.90;;;;;;5013347;28;20480;-87
2022/02/25 02:49:13;;;;;;;4.60;1.03;;;3.30;99.90;;;;;;5013191;28;20538;-85
2022/02/25 02:51:39;;;;;;;5.80;1.23;;;3.30;99.90;;;;;;5013077;28;20241;-87
2022/02/25 02:54:04;;;;;;;7.33;1.53;;;3.40;99.90;;;;;;5012988;28;20215;-85
2022/02/25 02:56:30;;;;;;;5.97;1.03;;;3.40;99.90;;;;;;4995542;28;20770;-86
2022/02/25 02:58:56;;;;;;;4.27;0.97;;;3.40;99.90;;;;;;5013101;28;20246;-85
2022/02/25 03:01:26;;;;;;;6.13;1.20;;;3.50;99.90;;;;;;5012786;28;20172;-86
2022/02/25 03:03:52;;;;;;;6.30;1.57;;;3.40;99.90;;;;;;4992129;28;20227;-86
2022/02/25 03:06:18;;;;;;;2.10;1.13;;;3.50;99.90;;;;;;4992142;28;20508;-86
2022/02/25 03:08:43;;;;;;;4.47;1.43;;;3.50;99.90;;;;;;4992345;28;20445;-85
2022/02/25 03:11:09;;;;;;;5.13;1.03;;;3.50;99.90;;;;;;4993830;28;20175;-89
2022/02/25 03:13:35;;;;;;;2.27;1.17;;;3.50;99.90;;;;;;4992915;28;20362;-87
2022/02/25 03:16:00;;;;;;;7.43;1.17;;;3.50;99.90;;;;;;4994303;28;20175;-86
2022/02/25 03:18:26;;;;;;;5.93;1.40;;;3.50;99.90;;;;;;4994664;28;20199;-88
2022/02/25 03:20:51;;;;;;;4.37;1.20;;;3.50;99.90;;;;;;4993716;28;20183;-86
2022/02/25 03:23:17;;;;;;;3.37;1.20;;;3.50;99.90;;;;;;4994155;28;20828;-87
2022/02/25 03:25:44;;;;;;;4.53;0.80;;;3.50;99.90;;;;;;4992686;28;20177;-87
2022/02/25 03:28:10;;;;;;;4.00;1.43;;;3.40;99.90;;;;;;4992203;28;20266;-85
2022/02/25 03:30:35;;;;;;;3.73;0.63;;;3.40;99.90;;;;;;4993164;28;20980;-85
2022/02/25 03:33:01;;;;;;;3.13;1.57;;;3.50;99.90;;;;;;4992734;28;20562;-86
2022/02/25 03:35:27;;;;;;;3.63;1.07;;;3.50;99.90;;;;;;4991766;28;20577;-87
2022/02/25 03:37:53;;;;;;;4.30;0.73;;;3.50;99.90;;;;;;4992259;28;20192;-86
2022/02/25 03:40:18;;;;;;;3.07;1.23;;;3.50;99.90;;;;;;4991720;28;20429;-87
2022/02/25 03:42:44;;;;;;;8.97;2.40;;;3.50;99.90;;;;;;4993106;28;20176;-86
2022/02/25 03:45:11;;;;;;;3.87;0.83;;;3.40;99.90;;;;;;4993457;28;20175;-87
2022/02/25 03:47:37;;;;;;;2.70;1.13;;;3.40;99.90;;;;;;4993149;28;20254;-88
2022/02/25 03:50:04;;;;;;;5.50;1.80;;;3.50;99.90;;;;;;4993254;28;20493;-87
2022/02/25 03:52:32;;;;;;;6.63;1.17;;;3.50;99.90;;;;;;4993483;28;20196;-83
2022/02/25 03:54:57;;;;;;;4.30;1.10;;;3.50;99.90;;;;;;4993578;28;20427;-85
2022/02/25 03:57:23;;;;;;;4.10;1.87;;;3.40;99.90;;;;;;4993601;28;20404;-87
2022/02/25 03:59:48;;;;;;;4.90;1.07;;;3.40;99.90;;;;;;4993612;28;20258;-86
2022/02/25 04:02:14;;;;;;;6.80;1.47;;;3.40;99.90;;;;;;4993267;28;20655;-83
2022/02/25 04:04:39;;;;;;;5.90;1.23;;;3.40;99.90;;;;;;5013231;28;20184;-86
2022/02/25 04:07:05;;;;;;;4.60;1.53;;;3.30;99.90;;;;;;5012948;28;20171;-86
2022/02/25 04:09:31;;;;;;;9.83;2.10;;;;;;;;;;5013056;28;20546;-85
2022/02/25 04:12:02;;;;;;;5.30;3.10;;;3.40;99.90;;;;;;5013005;28;20170;-86
2022/02/25 04:14:27;;;;;;;6.73;2.10;;;3.40;99.90;;;;;;5013231;28;20862;-86
2022/02/25 04:16:53;;;;;;;3.40;1.47;;;3.30;99.90;;;;;;5012857;28;20453;-83
2022/02/25 04:19:20;;;;;;;3.37;1.20;;;3.30;99.90;;;;;;5012991;28;20517;-87
2022/02/25 04:21:46;;;;;;;3.80;1.17;;;3.30;99.90;;;;;;5013108;28;20584;-84
2022/02/25 04:24:11;;;;;;;5.70;1.17;;;3.20;99.90;;;;;;5013030;28;20501;-87
2022/02/25 04:26:38;;;;;;;8.90;1.50;;;;;;;;;;5013089;28;20166;-86
2022/02/25 04:29:03;;;;;;;4.23;1.33;;;3.40;80.10;;;;;;5013366;28;20179;-85
2022/02/25 04:31:29;;;;;;;7.07;1.20;;;3.50;29.70;;;;;;5012602;28;20424;-86
2022/02/25 04:33:54;;;;;;;6.40;2.10;;;3.50;33.10;;;;;;5012882;28;20210;-85
2022/02/25 04:36:20;;;;;;;4.20;1.77;;;3.60;15.80;;;;;;5012924;28;20175;-86
2022/02/25 04:38:49;;;;;;;6.03;1.03;;;3.60;1.00;;;;;;5012778;28;20676;-85
2022/02/25 04:41:15;;;;;;;4.50;1.00;;;3.70;1.00;;;;;;5012661;28;20186;-87
2022/02/25 04:43:41;;;;;;;4.07;1.77;;;3.60;12.50;;;;;;5012862;28;20410;-84
2022/02/25 04:46:13;;;;;;;5.30;1.07;;;3.60;22.60;;;;;;5012229;28;20639;-86
2022/02/25 04:48:39;;;;;;;3.37;0.67;;;3.70;1.00;;;;;;5012870;28;20190;-85
2022/02/25 04:51:05;;;;;;;4.20;1.40;;;3.80;1.00;;;;;;5012545;28;20398;-85
2022/02/25 04:53:34;;;;;;;3.53;0.93;;;3.70;1.00;;;;;;5012468;28;20214;-84
2022/02/25 04:55:59;;;;;;;5.10;1.43;;;3.80;1.00;;;;;;5012464;28;20422;-87
2022/02/25 04:58:24;;;;;;;5.27;1.13;;;3.80;1.00;;;;;;5012377;28;20418;-84
2022/02/25 05:00:50;;;;;;;6.20;1.30;;;3.80;1.00;;;;;;5012190;28;20633;-83
2022/02/25 05:03:17;;;;;;;2.30;0.50;;;3.80;1.00;;;;;;5014416;28;20261;-85
2022/02/25 05:05:43;;;;;;;3.53;0.90;;;3.80;1.00;;;;;;5015970;28;20171;-82
2022/02/25 05:08:08;;;;;;;9.10;1.30;;;3.80;1.00;;;;;;5015883;28;20949;-83
2022/02/25 05:10:33;;;;;;;4.87;1.07;;;3.80;1.00;;;;;;5015704;28;20222;-81
2022/02/25 05:12:59;;;;;;;7.03;0.90;;;3.70;1.00;;;;;;5015608;28;20707;-81
2022/02/25 05:20:53;;;;;;;3.80;0.80;;;3.50;33.80;;;;;;5015588;28;20418;-83
2022/02/25 05:23:20;;;;;;;3.07;1.43;;;3.40;83.10;;;;;;5015548;28;20414;-81
2022/02/25 05:25:46;;;;;;;3.77;0.90;;;3.40;49.70;;;;;;5015488;28;20182;-82
2022/02/25 05:28:14;;;;;;;1.80;0.70;;;3.40;99.90;;;;;;5015599;28;20437;-82
2022/02/25 05:30:42;;;;;;;4.53;1.27;;;3.30;70.70;;;;;;4997836;28;20437;-85
2022/02/25 05:33:08;;;;;;;5.03;0.97;;;3.30;99.90;;;;;;4997491;28;20465;-82
2022/02/25 05:35:34;;;;;;;3.77;1.07;;;3.30;99.90;;;;;;5015368;28;20479;-83
2022/02/25 05:38:00;;;;;;;4.70;1.10;;;3.30;99.90;;;;;;5015405;28;20175;-85
2022/02/25 05:40:25;;;;;;;12.37;2.23;;;3.30;99.90;;;;;;4997757;28;20861;-81
2022/02/25 05:42:51;;;;;;;5.33;1.40;;;3.30;99.90;;;;;;4997826;28;20167;-85
2022/02/25 05:45:17;;;;;;;3.03;0.73;;;3.40;69.30;;;;;;4997749;28;20176;-84
2022/02/25 05:47:43;;;;;;;2.90;0.73;;;3.40;68.10;;;;;;5014826;28;20432;-85
2022/02/25 05:50:13;;;;;;;5.20;1.37;;;3.40;54.30;;;;;;5015142;28;20176;-84
2022/02/25 05:52:40;;;;;;;3.70;1.10;;;3.50;41.50;;;;;;4997352;28;20465;-83
2022/02/25 05:55:06;;;;;;;3.77;1.13;;;3.60;21.60;;;;;;4997468;28;20490;-85
2022/02/25 05:57:32;;;;;;;9.37;1.93;;;3.60;30.70;;;;;;5015007;28;20482;-84
2022/02/25 05:59:58;;;;;;;4.30;0.90;;;3.60;13.80;;;;;;5015000;28;20430;-86
2022/02/25 06:02:23;;;;;;;2.60;1.13;;;3.60;18.30;;;;;;5014276;28;20180;-83
2022/02/25 06:04:50;;;;;;;5.30;1.03;;;3.70;1.00;;;;;;5014851;28;20588;-83
2022/02/25 06:07:15;;;;;;;3.90;1.30;;;3.70;1.00;;;;;;5015010;28;20183;-84
2022/02/25 06:09:41;;;;;;;6.10;1.47;;;3.70;1.00;;;;;;5014693;28;20421;-84
2022/02/25 06:12:06;;;;;;;4.73;1.57;;;3.80;1.00;;;;;;5014502;28;20615;-84
2022/02/25 06:14:32;;;;;;;11.80;1.50;;;3.80;1.00;;;;;;5014834;28;20179;-84
2022/02/25 06:16:57;;;;;;;5.00;1.30;;;3.80;1.00;;;;;;5014195;28;20190;-81
2022/02/25 06:19:23;;;;;;;3.10;1.40;;;3.80;1.00;;;;;;4997035;28;20648;-82
2022/02/25 06:21:48;;;;;;;4.77;1.30;;;3.90;1.00;;;;;;5014376;28;20167;-82
2022/02/25 06:24:14;;;;;;;3.17;1.30;;;3.90;1.00;;;;;;5014062;28;20174;-83
2022/02/25 06:26:40;;;;;;;3.07;1.00;;;3.90;1.00;;;;;;5014066;28;20539;-84
2022/02/25 06:29:07;;;;;;;2.70;0.90;;;4.00;1.00;;;;;;5013968;28;20180;-84
2022/02/25 06:31:32;;;;;;;6.43;1.20;;;4.00;1.00;;;;;;5014187;28;20166;-85
2022/02/25 06:34:01;;;;;;;3.83;1.40;;;3.80;1.00;;;;;;5013903;28;20870;-82
2022/02/25 06:36:26;;;;;;;5.93;1.43;;;3.80;1.00;;;;;;5014026;28;20250;-82
2022/02/25 06:38:52;;;;;;;6.20;1.20;;;3.70;1.00;;;;;;4995268;28;20858;-84
2022/02/25 06:41:18;;;;;;;5.87;1.43;;;3.70;1.00;;;;;;5013235;28;20250;-81
2022/02/25 06:43:43;;;;;;;2.40;1.30;;;3.80;1.00;;;;;;5013157;28;20698;-82
2022/02/25 06:46:11;;;;;;;6.77;1.73;;;3.80;1.00;;;;;;5013685;28;20410;-81
2022/02/25 06:48:38;;;;;;;6.67;1.13;;;3.80;1.00;;;;;;5014020;28;20175;-82
2022/02/25 06:51:03;;;;;;;3.97;1.63;;;3.80;1.00;;;;;;5013956;28;20410;-82
2022/02/25 06:53:32;;;;;;;3.90;1.57;;;3.90;1.00;;;;;;5013967;28;20808;-82
2022/02/25 06:55:57;;;;;;;7.30;1.50;;;3.90;1.00;;;;;;5014007;28;20233;-84
2022/02/25 06:58:26;;;;;;;3.00;1.43;;;3.90;1.00;;;;;;5010401;28;20429;-84
2022/02/25 07:00:52;;;;;;;4.00;1.70;;;;;;;;;;5013324;28;20239;-86
2022/02/25 07:03:20;;;;;;;5.93;1.50;;;4.70;1.00;;;;;;5013815;28;20461;-86
2022/02/25 07:05:46;;;;;;;5.50;1.50;;;4.30;1.00;;;;;;5006171;28;20457;-84
2022/02/25 07:08:11;;;;;;;13.40;3.43;;;5.10;99.90;;;;;;5005704;28;20442;-86
2022/02/25 07:10:38;;;;;;;4.80;1.63;;;5.50;1.00;;;;;;5003486;28;20171;-84
2022/02/25 07:13:05;;;;;;;6.60;1.73;;;5.70;1.00;;;;;;5013045;28;20217;-84
2022/02/25 07:15:34;;;;;;;7.20;2.30;;;5.70;99.90;;;;;;4995317;28;20432;-82
2022/02/25 07:18:00;;;;;;;5.77;1.40;;;5.10;1.00;;;;;;5013637;28;20429;-83
2022/02/25 07:20:26;;;;;;;3.60;1.27;;;4.90;99.90;;;;;;5013807;28;20410;-83
2022/02/25 07:22:52;;;;;;;4.17;1.20;;;5.20;99.90;;;;;;4996081;28;20604;-86
2022/02/25 07:25:18;;;;;;;3.23;1.67;;;;;;;;;;4996517;28;20468;-85
2022/02/25 07:27:45;;;;;;;4.50;1.10;;;4.40;1.00;;;;;;5003770;28;20277;-83
2022/02/25 07:30:11;;;;;;;4.50;1.90;;;4.30;1.00;;;;;;4993486;28;20797;-83
2022/02/25 07:32:41;;;;;;;5.03;2.47;;;4.30;1.00;;;;;;4993062;28;20508;-84
2022/02/25 07:35:11;;;;;;;5.93;1.63;;;4.20;1.00;;;;;;4993651;28;20427;-85
2022/02/25 07:37:37;;;;;;;4.67;1.93;;;4.20;1.00;;;;;;4993484;28;20411;-84
2022/02/25 07:40:04;;;;;;;7.27;1.33;;;4.10;1.00;;;;;;4993172;28;20502;-81
2022/02/25 07:42:30;;;;;;;9.40;2.07;;;4.10;1.00;;;;;;4993471;28;20506;-84
2022/02/25 07:44:56;;;;;;;5.83;1.77;;;4.10;1.00;;;;;;4993575;28;20971;-85
2022/02/25 07:47:22;;;;;;;6.63;0.87;;;4.10;1.00;;;;;;4993338;28;20171;-85
2022/02/25 07:49:48;;;;;;;4.53;1.47;;;4.20;1.00;;;;;;4993616;28;20177;-85
2022/02/25 07:52:17;;;;;;;6.60;1.30;;;4.20;1.00;;;;;;4993750;28;20508;-86
2022/02/25 07:54:46;;;;;;;3.43;1.37;;;4.30;1.00;;;;;;5017272;28;20449;-80
2022/02/25 07:57:12;;;;;;;8.00;1.50;;;4.60;1.00;;;;;;5011238;28;20503;-83
2022/02/25 07:59:37;;;;;;;5.60;1.50;;;5.10;99.90;;;;;;5011695;28;20403;-81
2022/02/25 08:02:03;;;;;;;5.00;1.63;;;6.00;1.00;;;;;;5015228;28;20184;-82
2022/02/25 08:04:30;;;;;;;4.43;1.43;;;6.10;1.00;;;;;;5017260;28;20219;-83
2022/02/25 08:06:56;;;;;;;6.60;1.17;;;6.00;99.90;;;;;;4983126;28;20463;-84
2022/02/25 08:09:30;;;;;;;3.00;1.17;;;5.90;99.90;;;;;;4994210;28;20442;-84
2022/02/25 08:11:57;;;;;;;9.90;1.70;;;6.20;99.90;;;;;;4993877;28;20178;-86
2022/02/25 08:14:22;;;;;;;6.57;2.00;;;5.60;1.00;;;;;;4993909;28;20424;-84
2022/02/25 08:16:48;;;;;;;6.57;2.60;;;5.40;1.00;;;;;;4976166;28;21000;-84
2022/02/25 08:19:14;;;;;;;5.83;1.70;;;5.30;33.50;;;;;;4993628;28;20175;-85
2022/02/25 08:21:41;;;;;;;3.57;1.57;;;5.10;1.00;;;;;;4993617;28;20182;-85
2022/02/25 08:24:07;;;;;;;9.53;3.03;;;4.90;99.90;;;;;;4975671;28;20407;-85
2022/02/25 08:26:33;;;;;;;3.60;2.03;;;4.80;99.90;;;;;;4976052;28;20428;-86
2022/02/25 08:28:59;;;;;;;7.20;3.30;;;4.60;1.00;;;;;;4993590;28;20402;-87
2022/02/25 08:31:25;;;;;;;7.10;2.07;;;4.50;1.00;;;;;;4992673;28;20167;-88
2022/02/25 08:33:50;;;;;;;9.30;3.27;;;4.50;1.00;;;;;;4992929;28;20527;-85
2022/02/25 08:36:16;;;;;;;3.63;1.93;;;4.50;1.00;;;;;;4975697;28;20698;-84
2022/02/25 08:38:41;;;;;;;8.10;1.83;;;4.50;99.90;;;;;;4996170;28;20175;-84
2022/02/25 08:41:07;;;;;;;8.07;2.07;;;4.60;1.00;;;;;;4996761;28;20176;-84
2022/02/25 08:43:36;;;;;;;6.20;2.10;;;4.60;1.00;;;;;;4996530;28;20251;-83
2022/02/25 08:46:05;;;;;;;16.87;3.10;;;4.70;1.00;;;;;;4996237;28;20198;-85
2022/02/25 08:48:31;;;;;;;4.50;2.50;;;4.70;99.90;;;;;;4996996;28;20423;-86
2022/02/25 08:50:57;;;;;;;5.90;3.03;;;4.70;99.90;;;;;;4978899;28;21006;-83
2022/02/25 08:53:22;;;;;;;8.60;2.50;;;4.80;99.90;;;;;;4996744;28;20476;-87
2022/02/25 08:55:48;;;;;;;13.87;2.97;;;4.70;99.90;;;;;;4996628;28;20581;-87
2022/02/25 08:58:13;;;;;;;5.50;2.33;;;4.80;1.00;;;;;;4996683;28;20659;-83
2022/02/25 09:00:43;;;;;;;7.77;3.03;;;4.70;1.00;;;;;;4996137;28;20226;-85
2022/02/25 09:03:08;;;;;;;5.90;2.73;;;4.70;1.00;;;;;;4978820;28;20215;-88
2022/02/25 09:05:34;;;;;;;9.50;2.67;;;4.70;1.00;;;;;;4996488;28;20468;-85
2022/02/25 09:07:59;;;;;;;6.97;3.13;;;5.30;1.00;;;;;;4999151;28;20183;-86
2022/02/25 09:10:25;;;;;;;9.93;2.40;;;6.20;99.90;;;;;;4992039;28;20174;-86
2022/02/25 09:12:52;;;;;;;9.80;3.70;;;5.90;1.00;;;;;;5004513;28;20215;-86
2022/02/25 09:15:22;;;;;;;6.97;3.20;;;5.30;1.00;;;;;;4983150;28;20488;-85
2022/02/25 09:17:49;;;;;;;5.00;2.47;;;5.20;1.00;;;;;;5004292;28;20431;-86
2022/02/25 09:20:15;;;;;;;9.07;2.67;;;4.80;1.00;;;;;;5008061;28;20468;-84
2022/02/25 09:22:40;;;;;;;8.37;4.43;;;4.70;44.60;;;;;;4987218;28;20793;-84
2022/02/25 09:25:06;;;;;;;6.70;2.27;;;4.70;30.00;;;;;;4989293;28;20176;-84
2022/02/25 09:27:32;;;;;;;11.30;3.10;;;4.60;35.10;;;;;;5005840;28;20631;-83
2022/02/25 09:29:58;;;;;;;7.97;2.57;;;4.60;55.00;;;;;;5005455;28;20206;-83
2022/02/25 09:32:24;;;;;;;4.37;2.07;;;4.60;66.20;;;;;;5003167;28;20207;-82
2022/02/25 09:34:50;;;;;;;7.53;1.90;;;4.50;72.30;;;;;;4986488;28;20588;-82
2022/02/25 09:37:16;;;;;;;5.33;2.30;;;4.50;71.70;;;;;;5005052;28;20410;-84
2022/02/25 09:39:44;;;;;;;6.20;2.90;;;4.60;92.30;;;;;;5006097;28;20189;-85
2022/02/25 09:42:13;;;;;;;4.30;2.30;;;4.70;43.70;;;;;;5000810;28;20678;-82
2022/02/25 09:44:41;;;;;;;10.37;2.27;;;5.00;1.00;;;;;;4995627;28;20970;-83
2022/02/25 09:47:06;;;;;;;5.23;2.10;;;5.40;1.00;;;;;;4995184;28;20494;-84
2022/02/25 09:49:32;;;;;;;7.80;2.67;;;5.40;1.00;;;;;;4995175;28;20522;-84
2022/02/25 09:51:58;;;;;;;7.77;3.73;;;5.40;1.00;;;;;;4995357;28;20179;-83
2022/02/25 09:54:24;;;;;;;3.63;2.50;;;5.20;1.00;;;;;;4977756;28;20212;-83
2022/02/25 09:56:53;;;;;;;8.90;2.60;;;5.30;1.00;;;;;;4995190;28;20954;-83
2022/02/25 09:59:18;;;;;;;4.83;1.83;;;5.80;1.00;;;;;;4977416;28;20175;-83
2022/02/25 10:01:45;;;;;;;3.70;2.50;;;5.60;1.00;;;;;;4994892;28;20415;-84
2022/02/25 10:04:12;;;;;;;7.20;2.63;;;5.50;1.00;;;;;;4995046;28;20219;-84
2022/02/25 10:06:37;;;;;;;8.07;2.80;;;5.30;1.00;;;;;;4995324;28;20823;-82
2022/02/25 10:09:25;;;;;;;5.00;1.93;;;5.20;1.00;;;;;;4995045;28;20506;-82
2022/02/25 10:12:09;;;;;;;5.40;2.80;;;5.10;1.00;;;;;;4995183;28;20167;-84
2022/02/25 10:14:43;;;;;;;6.20;2.10;;;5.10;1.00;;;;;;4999192;28;20769;-84
2022/02/25 10:17:21;;;;;;;3.63;2.70;;;5.10;1.00;;;;;;4994491;28;20418;-84
2022/02/25 10:20:07;;;;;;;8.53;3.97;;;5.20;1.00;;;;;;4996001;28;20406;-85
2022/02/25 10:22:38;;;;;;;7.43;2.97;;;5.50;1.00;;;;;;5000101;28;20926;-88
2022/02/25 10:25:09;;;;;;;3.10;2.23;;;5.50;1.00;;;;;;4994872;28;20456;-84
2022/02/25 10:27:43;;;;;;;3.40;2.33;;;5.60;1.00;;;;;;4994325;28;20919;-84
2022/02/25 10:30:20;;;;;;;5.63;2.57;;;5.90;1.00;;;;;;4976288;28;20526;-87
2022/02/25 10:32:49;;;;;;;3.47;2.70;;;5.90;1.00;;;;;;4976328;28;20458;-86
2022/02/25 10:35:28;;;;;;;5.73;2.97;;;5.60;1.00;;;;;;4993134;28;20457;-85
2022/02/25 10:38:04;;;;;;;5.70;2.30;;;5.30;1.00;;;;;;4992408;28;20505;-86
2022/02/25 10:40:36;;;;;;;4.30;2.23;;;5.20;17.20;;;;;;4997024;28;20803;-82
2022/02/25 10:43:03;;;;;;;4.63;1.90;;;4.70;99.90;;;;;;5011010;28;20430;-88
2022/02/25 10:45:36;;;;;;;10.67;2.80;;;4.70;99.90;;;;;;4995869;28;20786;-86
2022/02/25 10:48:05;;;;;;;9.50;4.27;;;4.70;99.90;;;;;;4996048;28;20422;-86
2022/02/25 10:50:42;;;;;;;4.57;3.33;;;4.50;99.90;;;;;;5012601;28;20422;-85
2022/02/25 10:53:09;;;;;;;6.10;3.73;;;4.50;99.90;;;;;;4995822;28;20492;-86
2022/02/25 10:55:35;;;;;;;13.90;3.23;;;4.60;99.90;;;;;;5013328;28;20410;-85
2022/02/25 10:58:01;;;;;;;9.70;3.77;;;4.70;99.90;;;;;;5013332;28;20413;-85
2022/02/25 11:00:27;;;;;;;4.93;3.67;;;4.60;99.90;;;;;;5012380;28;20417;-87
2022/02/25 11:02:59;;;;;;;8.47;3.37;;;4.50;99.90;;;;;;5013270;28;20880;-87
2022/02/25 11:05:35;;;;;;;12.13;4.53;;;4.70;99.90;;;;;;5013617;28;20421;-86
2022/02/25 11:08:03;;;;;;;4.03;3.20;;;5.00;99.90;;;;;;5013654;28;20405;-87
2022/02/25 11:10:31;;;;;;;7.53;3.57;;;5.20;99.90;;;;;;4995913;28;20422;-87
2022/02/25 11:13:01;;;;;;;9.97;3.83;;;5.00;99.90;;;;;;5012752;28;20465;-84
2022/02/25 11:15:29;;;;;;;5.97;3.70;;;4.90;99.90;;;;;;4995511;28;20438;-84
2022/02/25 11:17:55;;;;;;;8.33;2.73;;;4.80;99.90;;;;;;4993794;28;20465;-84
2022/02/25 11:20:26;;;;;;;11.73;3.27;;;5.00;99.90;;;;;;4993739;28;20422;-84
2022/02/25 11:22:57;;;;;;;5.13;2.77;;;5.20;99.90;;;;;;4993906;28;20176;-83
2022/02/25 11:25:23;;;;;;;11.43;4.53;;;5.40;99.90;;;;;;4993631;28;20908;-83
2022/02/25 11:27:49;;;;;;;12.47;4.63;;;5.20;99.90;;;;;;4993713;28;20927;-83
2022/02/25 11:30:32;;;;;;;3.87;2.40;;;5.00;99.90;;;;;;4993081;28;20426;-84
2022/02/25 11:32:59;;;;;;;7.50;3.70;;;4.90;99.90;;;;;;4993603;28;20474;-84
2022/02/25 11:35:31;;;;;;;8.40;3.10;;;5.00;99.90;;;;;;4993607;28;20489;-83
2022/02/25 11:38:09;;;;;;;7.67;3.90;;;5.10;99.90;;;;;;4975266;28;20753;-84
2022/02/25 11:40:54;;;;;;;8.40;3.77;;;5.70;99.90;;;;;;4991592;28;20458;-83
2022/02/25 11:43:39;;;;;;;5.80;2.30;;;;;;;;;;4991357;28;20442;-84
2022/02/25 11:46:07;;;;;;;6.57;1.90;;;6.60;1.00;;;;;;5011055;28;20451;-85
2022/02/25 11:48:50;;;;;;;7.33;2.50;;;6.20;1.00;;;;;;5008836;28;20496;-90
2022/02/25 11:51:41;;;;;;;5.57;2.23;;;5.90;35.60;;;;;;5005872;28;20432;-91
2022/02/25 11:54:28;;;;;;;6.27;2.90;;;5.90;99.90;;;;;;4991143;28;20553;-90
2022/02/25 11:57:15;;;;;;;4.13;2.10;;;5.80;73.70;;;;;;4996446;28;20787;-90
2022/02/25 11:59:40;;;;;;;4.80;1.97;;;5.60;99.90;;;;;;4995314;28;20429;-90
2022/02/25 12:02:12;;;;;;;8.40;2.50;;;5.60;99.90;;;;;;5013607;28;20993;-86
2022/02/25 12:04:39;;;;;;;7.13;3.03;;;6.30;99.90;;;;;;4995109;28;20234;-90
2022/02/25 12:07:12;;;;;;;9.07;2.67;;;6.40;36.80;;;;;;4980061;28;20458;-90
2022/02/25 12:09:55;;;;;;;4.93;2.13;;;8.70;99.90;;;;;;5012752;28;20925;-88
2022/02/25 12:12:23;;;;;;;6.10;2.43;;;9.90;1.00;;;;;;5015277;28;20428;-88
2022/02/25 12:15:17;;;;;;;5.90;1.47;;;11.20;99.90;;;;;;5016725;28;20420;-89
2022/02/25 12:17:45;;;;;;;3.93;0.60;;;10.60;18.00;;;;;;5017696;28;20435;-90
2022/02/25 12:20:23;;;;;;;4.00;1.67;;;9.20;99.90;;;;;;4999971;28;20915;-90
2022/02/25 12:22:48;;;;;;;6.93;1.40;;;9.40;1.00;;;;;;5016978;28;20457;-88
2022/02/25 12:25:34;;;;;;;6.47;0.97;;;11.60;29.90;;;;;;4998935;28;20511;-84
2022/02/25 12:28:34;;;;;;;3.63;1.07;;;12.20;10.50;;;;;;5015675;28;20193;-85
2022/02/25 12:31:04;;;;;;;2.80;0.80;;;10.90;1.00;;;;;;5015749;28;20464;-84
2022/02/25 12:33:40;;;;;;;2.73;0.53;;;10.80;1.00;;;;;;5016133;28;20484;-83
2022/02/25 12:36:16;;;;;;;5.50;0.67;;;9.10;1.00;;;;;;5016122;28;20403;-83
2022/02/25 12:38:51;;;;;;;2.53;0.40;;;8.00;99.90;;;;;;5017508;28;20426;-86
2022/02/25 12:41:22;;;;;;;2.30;0.43;;;7.60;1.00;;;;;;5015701;28;20412;-85
2022/02/25 12:43:53;;;;;;;5.50;0.60;;;7.10;99.90;;;;;;5015768;28;20952;-84
2022/02/25 12:46:21;;;;;;;0.70;0.30;;;6.80;1.00;;;;;;5015030;28;20434;-87
2022/02/25 12:48:48;;;;;;;1.03;0.20;;;6.50;1.00;;;;;;5015454;28;20428;-85
2022/02/25 12:51:14;;;;;;;1.70;0.77;;;6.30;33.40;;;;;;5015642;28;20423;-86
2022/02/25 12:54:08;;;;;;;2.70;0.33;;;6.20;99.90;;;;;;5015661;28;20474;-85
2022/02/25 12:56:39;;;;;;;2.10;0.50;;;5.80;99.90;;;;;;5015539;28;20437;-84
2022/02/25 12:59:08;;;;;;;1.73;0.40;;;5.70;99.90;;;;;;4997833;28;20907;-83
2022/02/25 13:01:39;;;;;;;1.53;0.20;;;5.40;99.90;;;;;;5012721;28;20458;-86
2022/02/25 13:04:18;;;;;;;2.60;0.60;;;5.40;99.90;;;;;;5013293;28;20555;-84
2022/02/25 13:06:44;;;;;;;0.80;0.20;;;5.10;99.90;;;;;;4997741;28;20421;-84
2022/02/25 13:09:12;;;;;;;0.83;0.30;;;5.00;99.90;;;;;;5015361;28;20433;-85